Time;durP1;ratioP1;P1;durP2;ratioP2;P2;SDS_P1;SDS_P2;PMS_P1;PMS_P2;Temp;Humidity;BMP_temperature;BMP_pressure;BME280_temperature;BME280_humidity;BME280_pressure;Samples;Min_cycle;Max_cycle;Signal;HPM_P1;HPM_P2
2022/12/15 00:40:26;;;;;;;2.00;1.00;;;-2.80;99.90;;;;;;5050165;28;20923;-77
2022/12/15 00:42:53;;;;;;;1.40;0.90;;;-2.80;99.90;;;;;;5064129;28;20048;-77
2022/12/15 00:45:19;;;;;;;2.08;0.90;;;-2.80;99.90;;;;;;5046550;28;20045;-76
2022/12/15 00:47:46;;;;;;;2.40;1.50;;;-2.90;99.90;;;;;;5063146;28;20270;-77
2022/12/15 01:21:00;;;;;;;1.63;1.30;;;-3.20;99.90;;;;;;5061196;28;20467;-77
2022/12/15 01:23:27;;;;;;;1.92;1.33;;;-3.20;99.90;;;;;;5062001;28;20488;-77
2022/12/15 01:25:54;;;;;;;2.10;1.40;;;-3.20;99.90;;;;;;5046228;28;20091;-77
2022/12/15 01:28:21;;;;;;;1.13;1.00;;;-3.20;99.90;;;;;;5029196;28;20061;-77
2022/12/15 01:30:48;;;;;;;1.45;1.00;;;-3.30;99.90;;;;;;5046420;28;20211;-77
2022/12/15 01:33:15;;;;;;;1.40;1.05;;;-3.30;99.90;;;;;;5029308;28;20056;-77
2022/12/15 01:35:42;;;;;;;2.17;1.40;;;-3.30;99.90;;;;;;5046278;28;20067;-77
2022/12/15 01:38:09;;;;;;;1.58;1.05;;;-3.30;99.90;;;;;;5045083;28;20511;-77
2022/12/15 01:40:45;;;;;;;2.13;1.25;;;-3.30;99.90;;;;;;5062961;28;20143;-77
2022/12/15 01:43:26;;;;;;;2.40;1.35;;;-3.30;99.90;;;;;;5062274;28;20056;-77
2022/12/15 01:45:59;;;;;;;1.73;1.05;;;-3.40;99.90;;;;;;5045981;28;20543;-77
2022/12/15 01:48:46;;;;;;;2.67;1.52;;;-3.30;99.90;;;;;;5046226;28;20052;-77
2022/12/15 01:51:14;;;;;;;1.98;1.33;;;-3.40;99.90;;;;;;5045501;28;20052;-77
2022/12/15 01:54:04;;;;;;;2.15;1.00;;;-3.40;99.90;;;;;;5045185;28;20048;-77
2022/12/15 01:56:32;;;;;;;1.58;1.08;;;-3.50;99.90;;;;;;5054425;28;20053;-77
2022/12/15 01:59:03;;;;;;;1.58;1.23;;;-3.50;99.90;;;;;;5030037;28;20393;-77
2022/12/15 02:01:30;;;;;;;3.17;1.27;;;-3.60;99.90;;;;;;5047358;28;20484;-77
2022/12/15 02:03:57;;;;;;;3.45;1.70;;;-3.60;99.90;;;;;;5031857;28;20109;-77
2022/12/15 02:06:24;;;;;;;1.67;1.05;;;-3.60;99.90;;;;;;5032665;28;20056;-77
2022/12/15 02:08:51;;;;;;;1.15;0.90;;;-3.60;99.90;;;;;;5064963;28;20044;-77
2022/12/15 02:11:37;;;;;;;2.53;1.67;;;-3.70;99.90;;;;;;5032376;28;20052;-77
2022/12/15 02:14:05;;;;;;;2.85;1.20;;;-3.80;99.90;;;;;;5064109;28;20066;-77
2022/12/15 02:16:53;;;;;;;2.38;1.33;;;-3.70;99.90;;;;;;5047896;28;20055;-77
2022/12/15 02:19:28;;;;;;;1.73;1.20;;;-3.70;99.90;;;;;;5066011;28;20100;-77
2022/12/15 02:22:08;;;;;;;1.92;1.20;;;-3.70;99.90;;;;;;5064310;28;20464;-77
2022/12/15 02:24:42;;;;;;;2.58;1.48;;;-3.70;99.90;;;;;;5047863;28;20044;-77
2022/12/15 02:27:30;;;;;;;1.70;1.00;;;-3.70;99.90;;;;;;5065018;28;20074;-77
2022/12/15 02:30:17;;;;;;;2.17;1.33;;;-3.70;99.90;;;;;;5065591;28;20048;-77
2022/12/15 02:32:56;;;;;;;1.40;0.80;;;-3.80;99.90;;;;;;5058366;28;20052;-77
2022/12/15 02:35:29;;;;;;;1.98;1.23;;;-3.80;99.90;;;;;;5044706;28;20053;-77
2022/12/15 02:37:56;;;;;;;1.08;0.82;;;-3.80;99.90;;;;;;5042687;28;20045;-77
2022/12/15 02:40:23;;;;;;;1.73;1.10;;;-3.80;99.90;;;;;;5027538;28;20044;-77
2022/12/15 02:42:51;;;;;;;2.85;1.33;;;-3.80;99.90;;;;;;5060874;28;20052;-76
2022/12/15 02:45:22;;;;;;;1.85;1.67;;;-3.80;99.90;;;;;;5046158;28;20219;-77
2022/12/15 02:48:10;;;;;;;3.22;1.23;;;-3.80;99.90;;;;;;5048258;28;20044;-77
2022/12/15 02:50:50;;;;;;;1.73;1.20;;;-3.90;99.90;;;;;;5065107;28;20512;-77
2022/12/15 02:53:35;;;;;;;1.70;1.30;;;-3.90;99.90;;;;;;5063977;28;20067;-76
2022/12/15 02:56:16;;;;;;;1.33;1.00;;;-3.90;99.90;;;;;;5064948;28;20494;-77
2022/12/15 02:58:49;;;;;;;1.65;0.90;;;-4.00;99.90;;;;;;5048886;28;20044;-77
2022/12/15 03:01:56;;;;;;;2.20;1.27;;;-4.00;99.90;;;;;;5064509;28;20149;-77
2022/12/15 03:04:23;;;;;;;1.42;1.10;;;-4.00;99.90;;;;;;5064180;28;20056;-77
2022/12/15 03:06:56;;;;;;;2.22;1.30;;;-4.00;99.90;;;;;;5064527;28;20082;-77
2022/12/15 03:09:27;;;;;;;1.42;1.20;;;-4.00;99.90;;;;;;5064363;28;20409;-77
2022/12/15 03:11:53;;;;;;;2.43;1.40;;;-4.10;99.90;;;;;;5064361;28;20058;-77
2022/12/15 03:14:20;;;;;;;3.03;1.15;;;-4.10;99.90;;;;;;5047370;28;20075;-77
2022/12/15 03:16:47;;;;;;;1.50;1.17;;;-4.10;99.90;;;;;;5047504;28;20487;-77
2022/12/15 03:19:14;;;;;;;1.77;1.25;;;-4.10;99.90;;;;;;5031037;28;20151;-77
2022/12/15 03:21:40;;;;;;;1.48;1.00;;;-4.20;99.90;;;;;;5064802;28;20056;-78
2022/12/15 03:24:07;;;;;;;2.10;1.15;;;-4.20;99.90;;;;;;5063687;28;20403;-77
2022/12/15 03:26:35;;;;;;;1.77;1.10;;;-4.20;99.90;;;;;;5064021;28;20052;-77
2022/12/15 03:29:01;;;;;;;2.03;1.35;;;-4.20;99.90;;;;;;5063824;28;20139;-77
2022/12/15 03:31:28;;;;;;;2.00;1.30;;;-4.10;99.90;;;;;;5047869;28;20040;-77
2022/12/15 03:33:56;;;;;;;2.13;1.42;;;-4.10;99.90;;;;;;5064028;28;20431;-77
2022/12/15 03:36:22;;;;;;;1.67;1.33;;;-4.10;99.90;;;;;;5030893;28;20624;-77
2022/12/15 03:38:49;;;;;;;2.15;1.23;;;-4.10;99.90;;;;;;5064395;28;20052;-77
2022/12/15 03:41:19;;;;;;;2.00;1.20;;;-4.10;99.90;;;;;;5065849;28;20052;-77
2022/12/15 03:43:45;;;;;;;2.30;1.20;;;-4.10;99.90;;;;;;5063579;28;20048;-79
2022/12/15 03:46:15;;;;;;;1.75;1.20;;;-4.10;99.90;;;;;;5047985;28;20143;-78
2022/12/15 03:48:42;;;;;;;2.42;1.30;;;-4.10;99.90;;;;;;5065063;28;20544;-77
2022/12/15 03:51:09;;;;;;;2.20;1.10;;;-4.10;99.90;;;;;;5065407;28;20572;-76
2022/12/15 03:53:36;;;;;;;3.25;1.20;;;-4.20;99.90;;;;;;5064660;28;20052;-77
2022/12/15 03:56:03;;;;;;;1.10;1.00;;;-4.20;99.90;;;;;;5064224;28;20186;-77
2022/12/15 03:58:30;;;;;;;1.58;1.10;;;-4.20;99.90;;;;;;5046958;28;20148;-76
2022/12/15 04:00:56;;;;;;;3.05;1.42;;;-4.20;99.90;;;;;;5033123;28;20040;-76
2022/12/15 04:03:23;;;;;;;1.80;1.30;;;-4.20;99.90;;;;;;5067374;28;20056;-76
2022/12/15 04:05:50;;;;;;;2.47;1.40;;;-4.20;99.90;;;;;;5051466;28;20045;-76
2022/12/15 04:08:17;;;;;;;2.42;1.30;;;-4.20;99.90;;;;;;5034039;28;20048;-76
2022/12/15 04:10:44;;;;;;;1.83;1.10;;;-4.20;99.90;;;;;;5067477;28;20132;-76
2022/12/15 04:13:11;;;;;;;1.80;1.30;;;-4.30;99.90;;;;;;5050716;28;20045;-76
2022/12/15 04:15:38;;;;;;;2.20;1.23;;;-4.30;99.90;;;;;;5068011;28;20048;-77
2022/12/15 04:18:08;;;;;;;2.53;1.23;;;-4.30;99.90;;;;;;5050736;28;20127;-76
2022/12/15 04:20:36;;;;;;;1.80;1.13;;;-4.40;99.90;;;;;;5035428;28;20463;-76
2022/12/15 04:23:02;;;;;;;1.80;1.20;;;-4.40;99.90;;;;;;5050773;28;20079;-77
2022/12/15 05:32:06;;;;;;;1.27;1.00;;;-4.80;99.90;;;;;;5067163;28;20383;-76
2022/12/15 05:34:33;;;;;;;1.85;1.20;;;-4.90;99.90;;;;;;5044951;28;20432;-76
2022/12/15 05:37:01;;;;;;;1.73;1.30;;;-4.90;99.90;;;;;;5048732;28;20114;-75
2022/12/15 05:39:28;;;;;;;1.90;1.30;;;-4.80;99.90;;;;;;5030681;28;20045;-78
2022/12/15 05:41:55;;;;;;;2.37;1.60;;;-4.80;99.90;;;;;;5062995;28;20081;-77
2022/12/15 05:44:22;;;;;;;1.50;1.17;;;-4.80;99.90;;;;;;5039822;28;20048;-77
2022/12/15 05:46:49;;;;;;;2.13;1.02;;;-4.80;99.90;;;;;;5062865;28;20518;-76
2022/12/15 05:49:16;;;;;;;1.53;1.27;;;-4.80;99.90;;;;;;5054189;28;20052;-76
2022/12/15 05:51:44;;;;;;;2.87;1.67;;;-4.80;99.90;;;;;;5057353;28;20554;-76
2022/12/15 05:54:14;;;;;;;2.30;1.60;;;-4.90;99.90;;;;;;5039141;28;20207;-77
2022/12/15 05:56:41;;;;;;;1.37;1.00;;;-4.90;99.90;;;;;;5057651;28;20067;-76
2022/12/15 05:59:07;;;;;;;2.50;1.33;;;-4.90;99.90;;;;;;5067107;28;20053;-76
2022/12/15 06:01:34;;;;;;;2.03;1.30;;;-4.90;99.90;;;;;;5044875;28;20158;-77
2022/12/15 06:04:01;;;;;;;2.53;2.22;;;-4.90;99.90;;;;;;5040297;28;20049;-76
2022/12/15 06:06:28;;;;;;;1.70;1.30;;;-4.90;99.90;;;;;;5059446;28;20048;-76
2022/12/15 06:08:55;;;;;;;2.20;1.30;;;-4.90;99.90;;;;;;5057931;28;20048;-76
2022/12/15 06:11:22;;;;;;;2.35;1.30;;;-4.90;99.90;;;;;;5040281;28;20049;-76
2022/12/15 06:13:49;;;;;;;2.57;1.43;;;-4.90;99.90;;;;;;5048491;28;20515;-77
2022/12/15 06:16:17;;;;;;;2.57;1.30;;;-4.90;99.90;;;;;;5038539;28;20214;-77
2022/12/15 06:18:45;;;;;;;2.43;1.20;;;-4.90;99.90;;;;;;5059477;28;20052;-78
2022/12/15 06:21:18;;;;;;;2.45;1.38;;;-5.00;99.90;;;;;;5052796;28;20052;-77
2022/12/15 06:23:45;;;;;;;1.60;1.17;;;-5.00;99.90;;;;;;5038757;28;20614;-77
2022/12/15 06:26:21;;;;;;;2.05;1.42;;;-5.00;99.90;;;;;;5060408;28;20048;-78
2022/12/15 06:28:49;;;;;;;1.70;1.20;;;-5.00;99.90;;;;;;5056588;28;20055;-77
2022/12/15 06:31:17;;;;;;;1.63;1.15;;;-5.00;99.90;;;;;;5042009;28;20063;-77
2022/12/15 06:33:44;;;;;;;2.35;1.88;;;-5.10;99.90;;;;;;5043431;28;20139;-77
2022/12/15 06:36:12;;;;;;;2.10;1.20;;;-5.00;99.90;;;;;;5072646;28;20051;-78
2022/12/15 06:38:42;;;;;;;2.40;1.48;;;-5.10;99.90;;;;;;5067628;28;20175;-77
2022/12/15 06:41:10;;;;;;;1.63;1.10;;;-5.10;99.90;;;;;;5051961;28;20049;-77
2022/12/15 06:43:37;;;;;;;1.83;1.30;;;-5.10;99.90;;;;;;5052408;28;20051;-76
2022/12/15 06:46:04;;;;;;;2.10;1.30;;;-5.10;99.90;;;;;;5049119;28;20052;-76
2022/12/15 06:48:30;;;;;;;3.00;1.63;;;-5.10;99.90;;;;;;5061729;28;20075;-76
2022/12/15 06:51:05;;;;;;;3.40;1.37;;;-5.20;99.90;;;;;;5043875;28;20045;-77
2022/12/15 06:53:39;;;;;;;1.50;1.20;;;-5.20;99.90;;;;;;5059683;28;20563;-77
2022/12/15 06:56:06;;;;;;;;;;;-5.20;99.90;;;;;;5044774;28;20071;-78
2022/12/15 06:58:33;;;;;;;2.17;1.20;;;-5.10;99.90;;;;;;5058911;28;19935;-78
2022/12/15 07:01:05;;;;;;;2.47;1.43;;;-5.10;99.90;;;;;;5042084;28;20056;-78
2022/12/15 07:03:32;;;;;;;1.93;1.33;;;-5.10;99.90;;;;;;5053697;28;20045;-77
2022/12/15 07:06:01;;;;;;;2.03;1.37;;;-5.10;99.90;;;;;;5050242;28;20048;-77
2022/12/15 07:08:28;;;;;;;2.33;1.70;;;-5.10;99.90;;;;;;5039096;28;20052;-77
2022/12/15 07:11:05;;;;;;;2.20;1.38;;;-5.10;99.90;;;;;;5058352;28;20141;-77
2022/12/15 07:13:33;;;;;;;1.63;1.30;;;-5.20;99.90;;;;;;5057046;28;20139;-76
2022/12/15 07:16:01;;;;;;;2.23;1.80;;;-5.20;99.90;;;;;;5048511;28;20059;-77
2022/12/15 07:18:28;;;;;;;2.53;2.00;;;-5.20;99.90;;;;;;5047037;28;20526;-77
2022/12/15 07:20:56;;;;;;;2.93;1.60;;;-5.20;99.90;;;;;;5061318;28;20699;-77
2022/12/15 07:23:23;;;;;;;1.37;1.00;;;-5.30;99.90;;;;;;5063867;28;20321;-76
2022/12/15 07:26:10;;;;;;;2.07;1.40;;;-5.30;99.90;;;;;;5056430;28;20063;-76
2022/12/15 07:28:37;;;;;;;3.83;1.47;;;-5.30;99.90;;;;;;5055629;28;20630;-77
2022/12/15 07:31:08;;;;;;;3.13;1.67;;;-5.30;99.90;;;;;;5049481;28;20074;-77
2022/12/15 07:33:35;;;;;;;2.23;1.47;;;-5.30;99.90;;;;;;5039012;28;20048;-77
2022/12/15 07:36:02;;;;;;;1.63;1.23;;;-5.30;99.90;;;;;;5074718;28;20143;-77
2022/12/15 07:38:29;;;;;;;1.87;1.23;;;-5.30;99.90;;;;;;5076476;28;20098;-77
2022/12/15 07:40:59;;;;;;;2.23;1.40;;;-5.30;99.90;;;;;;5046415;28;20055;-77
2022/12/15 07:43:27;;;;;;;2.30;1.33;;;-5.30;99.90;;;;;;5038912;28;20133;-76
2022/12/15 07:45:54;;;;;;;2.07;1.00;;;-5.40;99.90;;;;;;5041565;28;20159;-76
2022/12/15 07:48:22;;;;;;;2.23;1.37;;;-5.40;99.90;;;;;;5063853;28;20047;-77
2022/12/15 07:50:50;;;;;;;1.83;1.20;;;-5.40;99.90;;;;;;5052093;28;20062;-77
2022/12/15 07:53:17;;;;;;;1.33;1.07;;;-5.40;99.90;;;;;;5051960;28;20066;-77
2022/12/15 07:55:44;;;;;;;1.57;1.13;;;-5.40;99.90;;;;;;5037666;28;20098;-77
2022/12/15 07:58:31;;;;;;;1.67;1.10;;;-5.40;99.90;;;;;;5040903;28;20056;-77
2022/12/15 08:00:59;;;;;;;1.63;1.20;;;-5.40;99.90;;;;;;5049610;28;20051;-78
2022/12/15 08:03:26;;;;;;;1.40;1.20;;;-5.40;99.90;;;;;;5045234;28;20163;-78
2022/12/15 08:05:54;;;;;;;2.07;1.20;;;-5.50;99.90;;;;;;5051807;28;20071;-78
2022/12/15 08:08:29;;;;;;;1.77;1.20;;;-5.50;99.90;;;;;;5046632;28;20124;-77
2022/12/15 08:10:57;;;;;;;2.50;1.23;;;-5.50;99.90;;;;;;5057988;28;20127;-78
2022/12/15 08:13:23;;;;;;;1.83;1.27;;;-5.50;99.90;;;;;;5031877;28;20460;-78
2022/12/15 08:16:11;;;;;;;3.40;1.90;;;-5.50;99.90;;;;;;5049989;28;20574;-78
2022/12/15 08:18:38;;;;;;;2.03;1.50;;;-5.60;99.90;;;;;;5051192;28;20102;-77
2022/12/15 08:21:07;;;;;;;1.70;1.20;;;-5.50;99.90;;;;;;5038191;28;20141;-78
2022/12/15 08:23:34;;;;;;;2.10;1.20;;;-5.50;99.90;;;;;;5060083;28;20060;-78
2022/12/15 08:26:08;;;;;;;3.23;1.37;;;-5.50;99.90;;;;;;5022786;28;20055;-77
2022/12/15 08:28:35;;;;;;;2.83;1.40;;;-5.50;99.90;;;;;;5054097;28;20272;-78
2022/12/15 08:31:12;;;;;;;3.17;2.20;;;-5.40;99.90;;;;;;5022701;28;20058;-78
2022/12/15 08:33:40;;;;;;;1.97;1.30;;;-5.40;99.90;;;;;;5040239;28;20159;-78
2022/12/15 08:36:08;;;;;;;2.37;1.47;;;-5.40;99.90;;;;;;5036147;28;20071;-78
2022/12/15 08:38:37;;;;;;;2.43;1.20;;;-5.40;99.90;;;;;;5023429;28;20055;-78
2022/12/15 08:41:08;;;;;;;5.17;3.20;;;-5.40;99.90;;;;;;5036601;28;20087;-78
2022/12/15 08:43:36;;;;;;;1.47;1.20;;;-5.30;99.90;;;;;;5035556;28;20079;-78
2022/12/15 08:46:11;;;;;;;1.43;1.20;;;-5.30;99.90;;;;;;5057900;28;20083;-78
2022/12/15 08:48:38;;;;;;;2.33;1.37;;;-5.30;99.90;;;;;;5070252;28;20051;-78
2022/12/15 08:51:05;;;;;;;2.70;1.67;;;-5.20;99.90;;;;;;5060042;28;20059;-78
2022/12/15 08:53:32;;;;;;;2.83;1.70;;;-5.20;99.90;;;;;;5042865;28;20053;-78
2022/12/15 08:56:07;;;;;;;2.67;1.87;;;-5.10;99.90;;;;;;5059674;28;20052;-78
2022/12/15 08:58:34;;;;;;;2.40;1.50;;;-5.10;99.90;;;;;;5068214;28;20059;-78
2022/12/15 09:01:06;;;;;;;2.77;1.77;;;-5.10;99.90;;;;;;5051636;28;20505;-78
2022/12/15 09:03:33;;;;;;;2.13;1.30;;;-5.00;99.90;;;;;;5065953;28;20094;-78
2022/12/15 09:06:02;;;;;;;4.33;1.73;;;-5.00;99.90;;;;;;5038436;28;20080;-79
2022/12/15 09:08:29;;;;;;;2.97;1.77;;;-4.90;99.90;;;;;;5050742;28;20060;-78
2022/12/15 09:10:57;;;;;;;2.37;1.73;;;-4.90;99.90;;;;;;5060089;28;20056;-78
2022/12/15 09:13:24;;;;;;;2.00;1.50;;;-4.80;99.90;;;;;;5056181;28;20074;-78
2022/12/15 09:16:01;;;;;;;2.40;1.70;;;-4.80;99.90;;;;;;5041787;28;20051;-78
2022/12/15 09:18:37;;;;;;;2.70;1.80;;;-4.70;99.90;;;;;;5041535;28;20368;-78
2022/12/15 09:21:05;;;;;;;1.37;1.20;;;-4.70;99.90;;;;;;5043221;28;20067;-78
2022/12/15 09:23:32;;;;;;;1.67;1.33;;;-4.60;99.90;;;;;;5046811;28;20441;-77
2022/12/15 09:26:13;;;;;;;2.83;1.73;;;-4.60;99.90;;;;;;5077614;28;20204;-78
2022/12/15 09:28:40;;;;;;;1.50;1.40;;;-4.60;99.90;;;;;;5046014;28;20048;-78
2022/12/15 09:31:11;;;;;;;2.90;1.73;;;-4.50;99.90;;;;;;5047226;28;20147;-78
2022/12/15 09:33:39;;;;;;;2.10;1.30;;;-4.50;99.90;;;;;;5063445;28;20279;-77
2022/12/15 09:36:06;;;;;;;2.20;1.50;;;-4.40;99.90;;;;;;5074449;28;20391;-78
2022/12/15 09:38:34;;;;;;;2.90;1.73;;;-4.40;99.90;;;;;;5064098;28;20139;-78
2022/12/15 09:41:14;;;;;;;2.20;1.40;;;-4.30;99.90;;;;;;5053059;28;20510;-78
2022/12/15 09:43:47;;;;;;;2.97;1.80;;;-4.30;99.90;;;;;;5062371;28;20057;-78
2022/12/15 09:46:31;;;;;;;1.25;0.90;;;-4.20;99.90;;;;;;5064413;28;20052;-78
2022/12/15 09:48:58;;;;;;;1.92;1.52;;;-4.20;99.90;;;;;;5061080;28;20302;-78
2022/12/15 09:51:32;;;;;;;2.42;1.75;;;-4.10;99.90;;;;;;5056236;28;20045;-78
2022/12/15 09:53:59;;;;;;;1.77;1.25;;;-4.00;99.90;;;;;;5049556;28;20051;-78
2022/12/15 09:56:37;;;;;;;2.60;1.60;;;-4.00;99.90;;;;;;5044267;28;20056;-78
2022/12/15 09:59:36;;;;;;;2.13;1.50;;;-3.90;99.90;;;;;;5056832;28;20056;-78
2022/12/15 10:02:23;;;;;;;2.58;1.48;;;-3.90;99.90;;;;;;5062360;28;20088;-78
2022/12/15 10:05:14;;;;;;;2.13;1.30;;;-3.80;99.90;;;;;;5057481;28;20142;-78
2022/12/15 10:07:45;;;;;;;2.33;1.50;;;-3.70;99.90;;;;;;5050715;28;20110;-78
2022/12/15 10:10:23;;;;;;;3.33;2.00;;;-3.70;99.90;;;;;;5058107;28;20076;-78
2022/12/15 10:12:50;;;;;;;2.60;1.50;;;-3.60;99.90;;;;;;5056276;28;20056;-78
2022/12/15 10:15:30;;;;;;;2.45;1.75;;;-3.50;99.90;;;;;;5044417;28;20512;-78
2022/12/15 10:18:42;;;;;;;2.08;1.63;;;-3.50;99.90;;;;;;5050619;28;20060;-78
2022/12/15 10:21:12;;;;;;;3.78;1.90;;;-3.40;99.90;;;;;;5056609;28;20166;-78
2022/12/15 10:23:40;;;;;;;3.05;1.58;;;-3.40;99.90;;;;;;5059176;28;20084;-78
2022/12/15 10:26:22;;;;;;;2.08;1.50;;;-3.30;99.90;;;;;;5058152;28;20088;-78
2022/12/15 10:29:15;;;;;;;2.80;1.90;;;-3.20;99.90;;;;;;5084000;28;20049;-78
2022/12/15 10:31:59;;;;;;;2.15;1.40;;;-3.20;99.90;;;;;;5057830;28;20057;-78
2022/12/15 10:34:33;;;;;;;2.42;1.50;;;-3.10;99.90;;;;;;5058357;28;20048;-78
2022/12/15 10:37:00;;;;;;;2.13;1.52;;;-3.10;99.90;;;;;;5039689;28;20055;-78
2022/12/15 10:39:38;;;;;;;2.53;1.67;;;-3.10;99.90;;;;;;5051959;28;20048;-78
2022/12/15 10:42:13;;;;;;;3.08;1.98;;;-3.00;99.90;;;;;;5024322;28;20170;-79
2022/12/15 10:44:42;;;;;;;2.92;1.75;;;-2.90;99.90;;;;;;5020113;28;20494;-77
2022/12/15 10:47:30;;;;;;;3.00;2.08;;;-2.80;99.90;;;;;;5024186;28;20118;-78
2022/12/15 10:50:17;;;;;;;2.80;2.00;;;-2.80;99.90;;;;;;5048393;28;20045;-78
2022/12/15 10:52:50;;;;;;;3.92;2.13;;;-2.70;99.90;;;;;;5030126;28;20060;-77
2022/12/15 10:55:32;;;;;;;4.47;2.05;;;-2.60;99.90;;;;;;5053363;28;20468;-78
2022/12/15 10:58:00;;;;;;;3.67;2.20;;;-2.50;99.90;;;;;;5055970;28;20281;-78
2022/12/15 11:00:32;;;;;;;4.72;2.65;;;-2.40;99.90;;;;;;5047162;28;20052;-78
2022/12/15 11:02:58;;;;;;;4.57;3.30;;;-2.30;99.90;;;;;;5038503;28;20048;-78
2022/12/15 11:05:26;;;;;;;5.72;3.95;;;-2.20;99.90;;;;;;5057992;28;20242;-78
2022/12/15 11:08:14;;;;;;;5.80;3.55;;;-2.10;99.90;;;;;;5066999;28;20067;-78
2022/12/15 11:13:40;;;;;;;4.35;2.85;;;-2.00;99.90;;;;;;5058979;28;20053;-78
2022/12/15 11:16:15;;;;;;;5.05;3.45;;;-1.90;99.90;;;;;;5021504;28;20456;-78
2022/12/15 11:18:44;;;;;;;5.43;3.13;;;-1.80;99.90;;;;;;5056136;28;20508;-79
2022/12/15 11:21:31;;;;;;;4.60;3.65;;;-1.70;99.90;;;;;;5069705;28;20077;-78
2022/12/15 11:24:07;;;;;;;6.70;4.25;;;-1.60;99.90;;;;;;5056820;28;20135;-78
2022/12/15 11:27:02;;;;;;;4.28;3.70;;;-1.60;99.90;;;;;;5041829;28;20421;-78
2022/12/15 11:29:59;;;;;;;3.55;3.25;;;-1.50;99.90;;;;;;5058933;28;20377;-78
2022/12/15 11:32:28;;;;;;;4.75;3.20;;;-1.40;99.90;;;;;;5068896;28;20067;-78
2022/12/15 11:34:55;;;;;;;6.53;3.88;;;-1.30;99.90;;;;;;5056709;28;20052;-78
2022/12/15 11:37:38;;;;;;;6.70;4.07;;;-1.20;99.90;;;;;;5035938;28;20053;-78
2022/12/15 11:40:26;;;;;;;5.50;3.75;;;-1.10;99.90;;;;;;5060220;28;20500;-79
2022/12/15 11:43:25;;;;;;;5.35;3.83;;;-1.00;99.90;;;;;;5055186;28;20064;-78
2022/12/15 11:46:11;;;;;;;4.95;3.65;;;-0.90;99.90;;;;;;5068650;28;20464;-78
2022/12/15 11:48:56;;;;;;;4.90;3.70;;;-0.80;99.90;;;;;;5054258;28;20140;-79
2022/12/15 11:51:43;;;;;;;5.28;3.70;;;-0.70;99.90;;;;;;5035346;28;20163;-78
2022/12/15 11:54:17;;;;;;;6.93;5.50;;;-0.60;99.90;;;;;;5062299;28;20465;-78
2022/12/15 11:56:55;;;;;;;9.95;6.10;;;-0.50;99.90;;;;;;5077183;28;20071;-79
2022/12/15 11:59:31;;;;;;;10.02;6.43;;;-0.40;99.90;;;;;;5064375;28;20477;-78
2022/12/15 12:02:15;;;;;;;8.82;6.18;;;-0.40;99.90;;;;;;5063634;28;20055;-78
2022/12/15 12:04:59;;;;;;;7.95;6.50;;;-0.20;99.90;;;;;;5052999;28;20052;-78
2022/12/15 12:07:35;;;;;;;8.25;6.25;;;0.00;99.90;;;;;;5072394;28;20255;-79
2022/12/15 12:10:41;;;;;;;7.75;5.55;;;0.10;99.90;;;;;;5043741;28;20049;-79
2022/12/15 12:13:20;;;;;;;6.43;4.70;;;0.30;99.90;;;;;;5047477;28;20440;-77
2022/12/15 12:15:56;;;;;;;5.90;4.13;;;0.50;99.90;;;;;;5061958;28;20056;-84
2022/12/15 12:18:33;;;;;;;5.90;4.60;;;0.60;99.90;;;;;;5071720;28;20243;-86
2022/12/15 12:21:09;;;;;;;5.60;3.92;;;0.80;99.90;;;;;;5056503;28;20059;-87
2022/12/15 12:23:48;;;;;;;4.97;4.43;;;1.00;99.90;;;;;;5067883;28;20064;-87
2022/12/15 12:26:36;;;;;;;4.10;3.20;;;1.10;99.90;;;;;;5070699;28;20156;-86
2022/12/15 12:29:11;;;;;;;6.55;3.97;;;1.30;99.90;;;;;;5072027;28;20151;-87
2022/12/15 12:31:54;;;;;;;5.25;3.58;;;1.40;99.90;;;;;;5068222;28;20045;-87
2022/12/15 12:34:54;;;;;;;6.35;4.20;;;1.60;99.90;;;;;;5072800;28;20048;-87
2022/12/15 12:38:03;;;;;;;3.83;3.17;;;1.80;99.90;;;;;;5079049;28;20090;-87
2022/12/15 12:40:39;;;;;;;3.80;3.13;;;2.10;99.90;;;;;;5061455;28;20590;-88
2022/12/15 12:43:31;;;;;;;4.05;3.50;;;2.30;99.90;;;;;;5069704;28;20467;-88
2022/12/15 12:46:15;;;;;;;4.88;3.47;;;2.40;99.90;;;;;;5055983;28;20086;-88
2022/12/15 12:48:47;;;;;;;4.28;3.22;;;2.50;99.90;;;;;;5057827;28;20044;-88
2022/12/15 12:51:31;;;;;;;4.13;3.38;;;2.60;99.90;;;;;;5071691;28;20056;-87
2022/12/15 12:53:58;;;;;;;6.50;4.40;;;2.70;99.90;;;;;;5071440;28;20477;-88
2022/12/15 12:56:36;;;;;;;4.78;3.70;;;2.70;99.90;;;;;;5059471;28;20105;-88
2022/12/15 12:59:24;;;;;;;5.68;4.10;;;2.90;99.90;;;;;;5059755;28;20045;-88
2022/12/15 13:01:51;;;;;;;6.05;5.22;;;3.00;99.90;;;;;;5068610;28;20052;-86
2022/12/15 13:04:27;;;;;;;6.65;4.57;;;2.90;99.90;;;;;;5050486;28;20443;-86
2022/12/15 13:06:55;;;;;;;4.85;4.20;;;3.00;99.90;;;;;;5061569;28;20068;-88
2022/12/15 13:09:23;;;;;;;5.72;4.32;;;3.10;99.90;;;;;;5053038;28;20052;-87
2022/12/15 13:11:54;;;;;;;4.57;3.78;;;3.30;99.90;;;;;;5052038;28;20056;-86
2022/12/15 13:14:26;;;;;;;4.25;3.53;;;3.30;99.90;;;;;;5051099;28;20135;-87
2022/12/15 13:17:01;;;;;;;4.88;3.83;;;3.50;99.90;;;;;;5053166;28;20056;-89
2022/12/15 13:19:57;;;;;;;4.47;3.90;;;3.70;99.90;;;;;;5047011;28;20052;-88
2022/12/15 13:22:27;;;;;;;3.53;2.88;;;3.70;99.90;;;;;;5070155;28;20037;-87
2022/12/15 13:24:55;;;;;;;3.58;3.03;;;3.80;99.90;;;;;;5054406;28;20044;-88
2022/12/15 13:27:22;;;;;;;3.58;3.22;;;4.00;99.90;;;;;;5068482;28;20120;-89
2022/12/15 13:30:05;;;;;;;3.78;2.97;;;4.00;99.90;;;;;;5085143;28;20080;-85
2022/12/15 13:32:39;;;;;;;3.30;2.83;;;4.00;99.90;;;;;;5068889;28;20076;-86
2022/12/15 13:35:12;;;;;;;5.78;4.05;;;4.10;99.90;;;;;;5053179;28;20453;-86
2022/12/15 13:37:58;;;;;;;5.45;4.30;;;4.00;99.90;;;;;;5069857;28;20052;-85
2022/12/15 13:40:33;;;;;;;4.38;3.80;;;4.00;99.90;;;;;;5053813;28;20053;-87
2022/12/15 13:43:03;;;;;;;6.22;4.75;;;3.90;99.90;;;;;;5038192;28;20074;-90
2022/12/15 13:45:51;;;;;;;5.57;4.35;;;3.90;99.90;;;;;;5066588;28;20051;-89
2022/12/15 13:48:29;;;;;;;6.25;4.90;;;3.80;99.90;;;;;;5073713;28;20057;-87
2022/12/15 13:51:18;;;;;;;6.53;4.85;;;3.80;99.90;;;;;;5046052;28;20072;-87
2022/12/15 13:53:57;;;;;;;4.82;4.03;;;3.80;99.90;;;;;;5053173;28;20509;-87
2022/12/15 13:56:48;;;;;;;5.00;4.18;;;3.80;99.90;;;;;;5075072;28;20108;-87
2022/12/15 13:59:42;;;;;;;5.68;4.00;;;3.80;99.90;;;;;;5063990;28;20075;-86
2022/12/15 14:02:33;;;;;;;4.93;3.58;;;3.90;99.90;;;;;;5063479;28;20080;-85
2022/12/15 14:05:21;;;;;;;5.20;4.30;;;3.80;99.90;;;;;;5079212;28;20285;-86
2022/12/15 14:07:59;;;;;;;5.30;3.17;;;3.60;99.90;;;;;;5077721;28;20056;-86
2022/12/15 14:10:40;;;;;;;3.80;3.10;;;3.40;99.90;;;;;;5057277;28;20059;-87
2022/12/15 14:13:28;;;;;;;4.05;2.95;;;3.20;99.90;;;;;;5040014;28;20121;-88
2022/12/15 14:15:58;;;;;;;3.60;2.85;;;3.10;99.90;;;;;;5042389;28;20420;-87
2022/12/15 14:18:33;;;;;;;4.40;3.28;;;2.90;99.90;;;;;;5068557;28;20052;-87
2022/12/15 14:21:03;;;;;;;4.05;3.28;;;2.80;99.90;;;;;;5063453;28;20382;-85
2022/12/15 14:23:41;;;;;;;5.40;3.30;;;2.70;99.90;;;;;;5055091;28;20415;-85
2022/12/15 14:26:30;;;;;;;4.38;3.00;;;2.60;99.90;;;;;;5034102;28;20068;-88
2022/12/15 14:29:01;;;;;;;4.63;2.95;;;2.50;99.90;;;;;;5071517;28;20117;-87
2022/12/15 14:31:28;;;;;;;3.60;2.42;;;2.40;99.90;;;;;;5059588;28;20060;-86
2022/12/15 14:34:05;;;;;;;3.65;2.65;;;2.40;99.90;;;;;;5063106;28;20049;-86
2022/12/15 14:36:32;;;;;;;4.28;2.90;;;2.40;99.90;;;;;;5059979;28;20083;-87
2022/12/15 14:39:00;;;;;;;3.15;2.20;;;2.40;99.90;;;;;;5072468;28;20044;-87
2022/12/15 14:41:32;;;;;;;3.15;2.08;;;2.50;99.90;;;;;;5052214;28;20060;-87
2022/12/15 14:44:03;;;;;;;2.70;2.10;;;2.50;99.90;;;;;;5054455;28;20162;-86
2022/12/15 14:46:50;;;;;;;3.17;1.40;;;2.50;99.90;;;;;;5076967;28;20331;-86
2022/12/15 14:49:28;;;;;;;3.20;1.88;;;2.40;99.90;;;;;;5043014;28;20068;-85
2022/12/15 14:52:00;;;;;;;2.65;1.80;;;2.20;99.90;;;;;;5058841;28;20069;-85
2022/12/15 14:54:35;;;;;;;3.05;2.00;;;2.10;99.90;;;;;;5040363;28;20060;-85
2022/12/15 14:57:08;;;;;;;3.28;2.38;;;2.00;99.90;;;;;;5043539;28;20076;-87
2022/12/15 14:59:39;;;;;;;4.60;2.53;;;1.90;99.90;;;;;;5058688;28;20101;-85
2022/12/15 15:02:25;;;;;;;5.68;2.47;;;1.80;99.90;;;;;;5044154;28;20053;-86
2022/12/15 15:05:02;;;;;;;6.15;3.15;;;1.70;99.90;;;;;;5054061;28;20134;-88
2022/12/15 15:07:30;;;;;;;4.00;2.95;;;1.60;99.90;;;;;;5038125;28;20360;-88
2022/12/15 15:09:58;;;;;;;4.65;3.08;;;1.50;99.90;;;;;;5052983;28;20067;-87
2022/12/15 15:12:40;;;;;;;4.63;2.88;;;1.40;99.90;;;;;;5043121;28;20048;-88
2022/12/15 15:15:10;;;;;;;4.05;2.28;;;1.40;99.90;;;;;;5059381;28;20056;-87
2022/12/15 15:17:43;;;;;;;2.28;1.70;;;1.30;99.90;;;;;;5043911;28;20059;-86
2022/12/15 15:20:18;;;;;;;;;;;1.20;99.90;;;;;;5025731;28;20054;-86
2022/12/15 15:22:45;;;;;;;;;;;1.20;99.90;;;;;;5060289;28;20254;-87
2022/12/15 15:25:39;;;;;;;2.50;1.63;;;1.10;99.90;;;;;;5059943;28;19972;-87
2022/12/15 15:28:24;;;;;;;2.10;1.35;;;1.10;99.90;;;;;;5039408;28;20494;-86
2022/12/15 15:31:03;;;;;;;2.22;1.48;;;1.10;99.90;;;;;;5065655;28;20048;-85
2022/12/15 15:33:31;;;;;;;2.58;1.38;;;1.10;99.90;;;;;;5045192;28;20078;-85
2022/12/15 15:36:01;;;;;;;2.15;1.17;;;1.10;99.90;;;;;;5059028;28;20056;-86
2022/12/15 15:38:33;;;;;;;1.25;0.80;;;1.10;99.90;;;;;;5057145;28;20499;-85
2022/12/15 15:41:11;;;;;;;1.85;1.27;;;1.00;99.90;;;;;;5041497;28;20084;-85
2022/12/15 15:43:37;;;;;;;1.55;1.00;;;1.00;99.90;;;;;;5057077;28;20131;-84